createdAt,value
2022-09-23T00:16:15.494Z,643
2022-09-23T00:36:15.892Z,638
2022-09-23T00:56:15.926Z,635
2022-09-23T01:16:16.149Z,635
2022-09-23T01:36:16.048Z,637
2022-09-23T01:56:16.104Z,633
2022-09-23T05:16:16.713Z,628
2022-09-23T05:36:16.701Z,631
2022-09-23T05:56:16.749Z,634
2022-09-23T06:16:16.846Z,631
2022-09-23T06:36:30.777Z,652
2022-09-23T06:56:16.922Z,662
2022-09-23T07:36:17.047Z,657
2022-09-23T07:56:17.103Z,655
2022-09-23T08:16:17.173Z,653
2022-09-23T08:36:17.212Z,644
2022-09-23T08:56:17.262Z,641
2022-09-23T09:16:18.800Z,655
2022-09-23T09:36:17.362Z,655
2022-09-23T09:56:17.343Z,650
2022-09-23T10:16:17.415Z,650
2022-09-23T10:56:17.474Z,650
2022-09-23T11:16:17.574Z,645
2022-09-23T11:36:17.606Z,641
2022-09-23T11:56:25.901Z,649
2022-09-23T12:36:17.830Z,643
2022-09-23T13:16:17.891Z,631
2022-09-23T13:36:17.896Z,633
2022-09-23T13:56:17.992Z,634
2022-09-23T14:16:18.029Z,626
2022-09-23T14:36:18.034Z,625
2022-09-23T14:56:18.161Z,640
2022-09-23T15:16:18.140Z,642
2022-09-23T15:36:18.161Z,636
2022-09-23T15:56:18.253Z,635
2022-09-23T16:16:18.320Z,636
2022-09-23T16:36:18.321Z,638
2022-09-23T16:56:18.359Z,637
2022-09-23T17:16:18.479Z,629
2022-09-23T17:36:18.458Z,636
2022-09-23T17:56:18.491Z,653
2022-09-23T18:16:18.614Z,650
2022-09-23T18:36:18.601Z,648
2022-09-23T18:56:18.657Z,651
2022-09-23T19:16:18.736Z,653
2022-09-23T19:36:18.834Z,654
2022-09-23T19:56:18.798Z,649
2022-09-23T20:16:18.466Z,646
2022-09-23T20:36:18.909Z,658
2022-09-23T20:56:18.944Z,665
2022-09-23T21:16:19.118Z,660
2022-09-23T21:36:19.034Z,659
2022-09-23T21:56:20.845Z,661
2022-09-23T22:16:19.163Z,661
2022-09-23T22:36:19.180Z,660
2022-09-23T22:56:19.235Z,655
2022-09-23T23:16:19.360Z,654
2022-09-23T23:36:19.348Z,667
2022-09-23T23:56:19.389Z,665
